createdAt,value
2023-02-18T00:00:13.135Z,97666.75
2023-02-18T00:02:40.660Z,97670.91
2023-02-18T00:05:08.800Z,97650.91
2023-02-18T00:07:36.783Z,97661.00
2023-02-18T00:10:05.763Z,97662.63
2023-02-18T00:12:33.788Z,97666.25
2023-02-18T00:15:01.445Z,97670.34
2023-02-18T00:17:30.843Z,97670.19
2023-02-18T00:19:58.501Z,97665.72
2023-02-18T00:22:26.120Z,97656.69
2023-02-18T00:24:54.006Z,97658.84
2023-02-18T00:27:21.543Z,97649.16
2023-02-18T00:29:49.308Z,97648.84
2023-02-18T00:32:16.961Z,97648.19
2023-02-18T00:34:45.850Z,97648.84
2023-02-18T00:37:13.413Z,97642.16
2023-02-18T00:39:40.942Z,97647.09
2023-02-18T00:42:08.751Z,97644.47
2023-02-18T00:44:36.334Z,97645.00
2023-02-18T00:47:04.024Z,97636.31
2023-02-18T00:49:31.592Z,97647.94
2023-02-18T00:52:00.515Z,97651.75
2023-02-18T00:54:28.290Z,97637.53
2023-02-18T00:56:55.806Z,97647.63
2023-02-18T00:59:23.377Z,97633.25
2023-02-18T01:01:50.970Z,97642.19
2023-02-18T01:04:19.108Z,97640.53
2023-02-18T01:06:46.738Z,97638.25
2023-02-18T01:09:15.645Z,97647.34
2023-02-18T01:11:43.167Z,97642.72
2023-02-18T01:14:10.865Z,97636.91
2023-02-18T01:16:38.490Z,97642.72
2023-02-18T01:19:06.022Z,97633.94
2023-02-18T01:21:33.581Z,97637.75
2023-02-18T01:24:01.129Z,97628.84
2023-02-18T01:26:30.048Z,97636.31
2023-02-18T01:28:57.833Z,97627.88
2023-02-18T01:31:25.423Z,97626.06
2023-02-18T01:33:53.280Z,97611.03
2023-02-18T01:36:21.200Z,97625.22
2023-02-18T01:38:48.729Z,97618.97
2023-02-18T01:41:16.267Z,97625.88
2023-02-18T01:43:45.168Z,97619.28
2023-02-18T01:46:18.167Z,97617.94
2023-02-18T01:48:49.598Z,97606.38
2023-02-18T01:51:19.730Z,97608.19
2023-02-18T01:53:52.468Z,97614.47
2023-02-18T01:56:25.431Z,97614.31
2023-02-18T01:58:56.596Z,97614.16
2023-02-18T02:01:24.564Z,97618.75
2023-02-18T02:03:52.106Z,97628.16
2023-02-18T02:06:23.265Z,97631.81
2023-02-18T02:08:52.778Z,97624.88
2023-02-18T02:11:26.015Z,97628.50
2023-02-18T02:14:06.956Z,97628.16
2023-02-18T02:16:40.510Z,97629.28
2023-02-18T02:19:26.461Z,97623.47
2023-02-18T02:22:12.544Z,97627.78
2023-02-18T02:24:54.457Z,97620.84
2023-02-18T02:27:25.300Z,97617.69
2023-02-18T02:30:32.816Z,97617.03
2023-02-18T02:33:33.296Z,97622.31
2023-02-18T02:36:05.157Z,97610.56
2023-02-18T02:38:37.264Z,97597.06
2023-02-18T02:41:14.107Z,97587.50
2023-02-18T02:43:47.884Z,97605.84
2023-02-18T02:46:19.736Z,97593.75
2023-02-18T02:48:50.750Z,97591.97
2023-02-18T02:51:25.308Z,97572.44
2023-02-18T02:53:53.008Z,97590.09
2023-02-18T02:56:22.764Z,97589.28
2023-02-18T02:58:56.464Z,97596.34
2023-02-18T03:01:34.185Z,97596.53
2023-02-18T03:04:35.247Z,97590.91
2023-02-18T03:07:12.796Z,97594.56
2023-02-18T03:09:51.492Z,97590.41
2023-02-18T03:12:24.742Z,97586.13
2023-02-18T03:14:58.067Z,97592.25
2023-02-18T03:17:29.462Z,97592.25
2023-02-18T03:19:59.201Z,97585.13
2023-02-18T03:22:30.781Z,97590.28
2023-02-18T03:24:59.377Z,97595.88
2023-02-18T03:27:30.003Z,97586.28
2023-02-18T03:30:00.566Z,97587.78
2023-02-18T03:32:30.789Z,97583.94
2023-02-18T03:35:03.095Z,97570.63
2023-02-18T03:37:33.574Z,97588.13
2023-02-18T03:40:02.798Z,97580.84
2023-02-18T03:42:30.995Z,97577.22
2023-02-18T03:44:59.380Z,97584.34
2023-02-18T03:47:27.006Z,97577.72
2023-02-18T03:49:54.764Z,97576.53
2023-02-18T03:52:22.407Z,97589.09
2023-02-18T03:54:51.818Z,97580.38
2023-02-18T03:57:20.036Z,97586.78
2023-02-18T03:59:47.679Z,97578.53
2023-02-18T04:02:15.212Z,97586.47
2023-02-18T04:04:42.733Z,97579.88
2023-02-18T04:07:10.291Z,97583.34
2023-02-18T04:09:38.020Z,97598.22
2023-02-18T04:12:07.966Z,97598.69
2023-02-18T04:14:35.504Z,97590.28
2023-02-18T04:17:03.067Z,97603.81
2023-02-18T04:19:30.603Z,97598.69
2023-02-18T04:21:58.136Z,97609.09
2023-02-18T04:24:26.196Z,97597.03
2023-02-18T04:26:53.759Z,97587.13
2023-02-18T04:29:23.210Z,97585.78
2023-02-18T04:31:50.809Z,97599.19
2023-02-18T04:34:18.379Z,97596.53
2023-02-18T04:36:45.925Z,97591.88
2023-02-18T04:39:13.887Z,97593.56
2023-02-18T04:41:41.414Z,97598.84
2023-02-18T04:44:08.969Z,97589.94
2023-02-18T04:46:37.990Z,97587.44
2023-02-18T04:49:05.653Z,97587.09
2023-02-18T04:51:33.262Z,97588.09
2023-02-18T04:54:00.777Z,97587.09
2023-02-18T04:56:28.533Z,97591.75
2023-02-18T04:58:56.199Z,97579.84
2023-02-18T05:01:23.928Z,97594.88
2023-02-18T05:03:52.842Z,97598.72
2023-02-18T05:06:20.455Z,97584.91
2023-02-18T05:08:47.999Z,97585.72
2023-02-18T05:11:15.608Z,97590.63
2023-02-18T05:13:43.171Z,97588.63
2023-02-18T05:16:11.166Z,97590.59
2023-02-18T05:18:39.037Z,97601.28
2023-02-18T05:21:08.039Z,97600.28
2023-02-18T05:23:35.687Z,97593.50
2023-02-18T05:26:05.006Z,97605.88
2023-02-18T05:28:32.604Z,97596.09
2023-02-18T05:31:00.553Z,97599.38
2023-02-18T05:33:28.271Z,97619.97
2023-02-18T05:35:55.779Z,97606.25
2023-02-18T05:38:24.823Z,97620.78
2023-02-18T05:40:52.447Z,97612.56
2023-02-18T05:43:19.981Z,97622.91
2023-02-18T05:45:47.541Z,97613.31
2023-02-18T05:48:15.057Z,97619.59
2023-02-18T05:50:42.844Z,97620.25
2023-02-18T05:53:10.560Z,97618.91
2023-02-18T05:55:39.592Z,97600.09
2023-02-18T05:58:07.131Z,97608.72
2023-02-18T06:00:34.804Z,97620.72
2023-02-18T06:03:02.843Z,97616.94
2023-02-18T06:05:30.502Z,97620.56
2023-02-18T06:07:58.025Z,97617.56
2023-02-18T06:10:25.663Z,97618.56
2023-02-18T06:12:54.517Z,97616.59
2023-02-18T06:15:22.050Z,97619.22
2023-02-18T06:17:49.612Z,97620.22
2023-02-18T06:20:17.182Z,97613.13
2023-02-18T06:22:44.740Z,97615.97
2023-02-18T06:25:12.245Z,97617.75
2023-02-18T06:27:39.869Z,97616.28
2023-02-18T06:30:10.180Z,97620.88
2023-02-18T06:32:37.811Z,97617.41
2023-02-18T06:35:05.769Z,97626.84
2023-02-18T06:37:33.666Z,97631.75
2023-02-18T06:40:01.178Z,97632.88
2023-02-18T06:42:28.957Z,97635.69
2023-02-18T06:44:56.457Z,97627.25
2023-02-18T06:47:25.625Z,97622.50
2023-02-18T06:49:53.249Z,97621.97
2023-02-18T06:52:20.840Z,97622.13
2023-02-18T06:54:48.573Z,97606.75
2023-02-18T06:57:16.152Z,97630.06
2023-02-18T06:59:43.893Z,97613.91
2023-02-18T07:02:12.226Z,97606.31
2023-02-18T07:04:41.146Z,97612.44
2023-02-18T07:07:08.709Z,97598.28
2023-02-18T07:09:36.223Z,97594.66
2023-02-18T07:12:04.046Z,97596.63
2023-02-18T07:14:31.587Z,97585.34
2023-02-18T07:16:59.145Z,97594.47
2023-02-18T07:19:26.919Z,97588.34
2023-02-18T07:21:57.735Z,97586.03
2023-02-18T07:24:25.893Z,97582.56
2023-02-18T07:26:53.450Z,97582.84
2023-02-18T07:29:21.016Z,97590.78
2023-02-18T07:31:48.614Z,97581.88
2023-02-18T07:34:16.268Z,97577.97
2023-02-18T07:36:43.948Z,97574.34
2023-02-18T07:39:13.043Z,97578.09
2023-02-18T07:41:40.932Z,97578.63
2023-02-18T07:44:08.457Z,97577.47
2023-02-18T07:46:36.196Z,97583.41
2023-02-18T07:49:03.714Z,97581.09
2023-02-18T07:51:31.839Z,97582.56
2023-02-18T07:53:59.353Z,97576.91
2023-02-18T07:56:28.251Z,97582.34
2023-02-18T07:58:55.996Z,97581.38
2023-02-18T08:01:23.708Z,97584.16
2023-02-18T08:03:51.462Z,97581.38
2023-02-18T08:06:23.209Z,97580.03
2023-02-18T08:08:50.782Z,97591.94
2023-02-18T08:11:19.838Z,97598.31
2023-02-18T08:13:49.155Z,97587.28
2023-02-18T08:16:17.146Z,97588.25
2023-02-18T08:18:44.823Z,97578.22
2023-02-18T08:21:12.446Z,97582.00
2023-02-18T08:23:40.036Z,97582.84
2023-02-18T08:26:07.819Z,97568.69
2023-02-18T08:28:35.718Z,97578.94
2023-02-18T08:31:05.014Z,97576.50
2023-02-18T08:33:32.930Z,97568.00
2023-02-18T08:36:00.519Z,97562.44
2023-02-18T08:38:28.191Z,97557.69
2023-02-18T08:41:02.552Z,97556.09
2023-02-18T08:43:30.089Z,97551.16
2023-02-18T08:45:58.764Z,97538.59
2023-02-18T08:48:29.002Z,97526.91
2023-02-18T08:50:57.074Z,97526.38
2023-02-18T08:53:24.777Z,97523.94
2023-02-18T08:55:52.379Z,97516.84
2023-02-18T08:58:20.421Z,97512.94
2023-02-18T09:00:47.986Z,97526.13
2023-02-18T09:03:16.340Z,97512.28
2023-02-18T09:05:45.276Z,97498.56
2023-02-18T09:08:12.804Z,97484.53
2023-02-18T09:10:40.426Z,97479.22
2023-02-18T09:13:08.428Z,97467.09
2023-02-18T09:15:36.016Z,97470.03
2023-02-18T09:18:03.640Z,97455.63
2023-02-18T09:20:31.174Z,97461.38
2023-02-18T09:23:00.805Z,97460.91
2023-02-18T09:25:28.515Z,97454.97
2023-02-18T09:27:56.023Z,97447.84
2023-02-18T09:30:23.722Z,97439.66
2023-02-18T09:32:51.703Z,97441.13
2023-02-18T09:35:19.389Z,97423.56
2023-02-18T09:37:46.944Z,97429.63
2023-02-18T09:40:25.006Z,97416.13
2023-02-18T09:42:52.809Z,97424.25
2023-02-18T09:45:21.747Z,97403.59
2023-02-18T09:47:50.788Z,97402.59
2023-02-18T09:50:21.245Z,97405.91
2023-02-18T09:52:48.958Z,97402.63
2023-02-18T09:55:22.123Z,97392.66
2023-02-18T09:57:51.290Z,97401.47
2023-02-18T10:00:21.851Z,97394.34
2023-02-18T10:02:56.040Z,97396.88
2023-02-18T10:05:24.592Z,97408.94
2023-02-18T10:07:55.745Z,97406.13
2023-02-18T10:10:34.245Z,97417.66
2023-02-18T10:13:02.030Z,97390.34
2023-02-18T10:15:31.559Z,97406.44
2023-02-18T10:17:59.890Z,97399.66
2023-02-18T10:20:30.473Z,97400.53
2023-02-18T10:23:00.245Z,97387.66
2023-02-18T10:25:29.531Z,97386.28
2023-02-18T10:27:58.352Z,97384.78
2023-02-18T10:30:30.290Z,97385.88
2023-02-18T10:33:17.792Z,97387.16
2023-02-18T10:35:50.218Z,97375.81
2023-02-18T10:38:21.921Z,97365.28
2023-02-18T10:40:59.935Z,97380.66
2023-02-18T10:43:34.705Z,97370.88
2023-02-18T10:46:08.894Z,97373.75
2023-02-18T10:48:49.598Z,97372.81
2023-02-18T10:51:20.265Z,97366.97
2023-02-18T10:53:49.603Z,97364.16
2023-02-18T10:56:38.958Z,97350.91
2023-02-18T10:59:12.166Z,97365.78
2023-02-18T11:01:40.300Z,97353.00
2023-02-18T11:04:15.109Z,97333.25
2023-02-18T11:06:45.198Z,97325.06
2023-02-18T11:09:27.081Z,97325.59
2023-02-18T11:12:08.764Z,97320.13
2023-02-18T11:14:43.044Z,97318.84
2023-02-18T11:17:18.119Z,97320.84
2023-02-18T11:19:53.379Z,97309.72
2023-02-18T11:22:24.380Z,97309.53
2023-02-18T11:24:55.801Z,97288.06
2023-02-18T11:27:27.525Z,97306.78
2023-02-18T11:29:57.427Z,97296.72
2023-02-18T11:32:28.510Z,97300.09
2023-02-18T11:34:57.000Z,97286.94
2023-02-18T11:37:24.661Z,97293.06
2023-02-18T11:39:55.147Z,97289.31
2023-02-18T11:42:26.212Z,97265.06
2023-02-18T11:44:55.063Z,97259.22
2023-02-18T11:47:25.520Z,97252.94
2023-02-18T11:50:19.162Z,97263.19
2023-02-18T11:52:48.526Z,97251.72
2023-02-18T11:55:18.540Z,97231.63
2023-02-18T11:57:57.454Z,97271.16
2023-02-18T12:00:36.748Z,97250.31
2023-02-18T12:03:08.524Z,97248.28
2023-02-18T12:05:38.975Z,97244.91
2023-02-18T12:08:11.169Z,97242.09
2023-02-18T12:10:43.088Z,97240.47
2023-02-18T12:13:21.976Z,97234.66
2023-02-18T12:15:55.440Z,97227.16
2023-02-18T12:18:42.774Z,97224.78
2023-02-18T12:21:27.243Z,97221.50
2023-02-18T12:24:01.407Z,97212.13
2023-02-18T12:26:30.848Z,97216.94
2023-02-18T12:29:14.933Z,97209.50
2023-02-18T12:31:59.924Z,97211.31
2023-02-18T12:34:41.818Z,97207.34
2023-02-18T12:37:29.164Z,97208.06
2023-02-18T12:40:05.566Z,97202.50
2023-02-18T12:42:45.909Z,97206.34
2023-02-18T12:45:33.732Z,97206.88
2023-02-18T12:48:17.885Z,97201.13
2023-02-18T12:50:58.044Z,97209.28
2023-02-18T12:53:40.599Z,97208.69
2023-02-18T12:56:21.853Z,97208.38
2023-02-18T12:58:56.341Z,97206.00
2023-02-18T13:01:36.926Z,97204.72
2023-02-18T13:04:15.817Z,97216.72
2023-02-18T13:06:59.542Z,97203.72
2023-02-18T13:09:36.633Z,97195.03
2023-02-18T13:12:07.970Z,97182.31
2023-02-18T13:14:42.924Z,97194.38
2023-02-18T13:17:12.135Z,97182.78
2023-02-18T13:19:46.248Z,97172.47
2023-02-18T13:22:16.492Z,97202.44
2023-02-18T13:24:46.720Z,97199.50
2023-02-18T13:27:18.638Z,97173.97
2023-02-18T13:29:50.054Z,97178.41
2023-02-18T13:32:26.106Z,97183.34
2023-02-18T13:34:56.972Z,97176.38
2023-02-18T13:37:31.729Z,97180.81
2023-02-18T13:40:00.552Z,97174.19
2023-02-18T13:42:38.510Z,97183.53
2023-02-18T13:45:28.141Z,97167.78
2023-02-18T13:47:58.459Z,97172.84
2023-02-18T13:50:32.864Z,97167.41
2023-02-18T13:53:16.654Z,97172.72
2023-02-18T13:55:52.329Z,97178.28
2023-02-18T13:58:21.539Z,97174.69
2023-02-18T14:00:52.388Z,97172.88
2023-02-18T14:03:35.974Z,97163.22
2023-02-18T14:06:14.977Z,97138.22
2023-02-18T14:08:42.558Z,97147.88
2023-02-18T14:11:33.689Z,97142.38
2023-02-18T14:14:34.822Z,97139.47
2023-02-18T14:17:36.477Z,97149.84
2023-02-18T14:20:44.029Z,97144.34
2023-02-18T14:23:46.893Z,97138.75
2023-02-18T14:26:26.155Z,97141.50
2023-02-18T14:28:57.330Z,97139.63
2023-02-18T14:31:32.271Z,97120.94
2023-02-18T14:34:30.708Z,97140.22
2023-02-18T14:37:07.324Z,97150.56
2023-02-18T14:39:46.739Z,97148.88
2023-02-18T14:42:24.427Z,97148.78
2023-02-18T14:45:12.568Z,97150.44
2023-02-18T14:47:52.974Z,97146.13
2023-02-18T14:50:21.514Z,97153.97
2023-02-18T14:52:51.609Z,97131.50
2023-02-18T14:55:21.979Z,97154.34
2023-02-18T14:57:53.240Z,97161.66
2023-02-18T15:00:23.065Z,97145.94
2023-02-18T15:02:52.503Z,97141.19
2023-02-18T15:05:22.048Z,97148.50
2023-02-18T15:07:57.583Z,97154.56
2023-02-18T15:10:31.910Z,97152.75
2023-02-18T15:13:02.009Z,97150.25
2023-02-18T15:15:29.602Z,97143.69
2023-02-18T15:17:57.322Z,97147.81
2023-02-18T15:20:25.170Z,97152.09
2023-02-18T15:22:52.693Z,97151.47
2023-02-18T15:25:20.400Z,97145.81
2023-02-18T15:27:48.079Z,97179.06
2023-02-18T15:30:22.807Z,97167.81
2023-02-18T15:32:55.517Z,97166.75
2023-02-18T15:35:24.633Z,97165.13
2023-02-18T15:37:55.578Z,97164.13
2023-02-18T15:40:23.793Z,97174.44
2023-02-18T15:42:52.738Z,97173.44
2023-02-18T15:45:23.105Z,97164.81
2023-02-18T15:47:52.816Z,97157.88
2023-02-18T15:50:21.923Z,97164.56
2023-02-18T15:52:51.380Z,97164.66
2023-02-18T15:55:23.908Z,97175.47
2023-02-18T15:57:51.458Z,97186.22
2023-02-18T16:00:22.770Z,97187.72
2023-02-18T16:02:56.094Z,97189.94
2023-02-18T16:05:28.162Z,97198.25
2023-02-18T16:07:59.582Z,97216.50
2023-02-18T16:10:41.516Z,97207.72
2023-02-18T16:13:09.063Z,97215.03
2023-02-18T16:15:41.953Z,97209.00
2023-02-18T16:18:22.748Z,97201.41
2023-02-18T16:20:55.053Z,97217.84
2023-02-18T16:23:28.342Z,97226.81
2023-02-18T16:25:55.886Z,97212.44
2023-02-18T16:28:27.754Z,97228.69
2023-02-18T16:30:56.789Z,97238.16
2023-02-18T16:33:24.354Z,97238.94
2023-02-18T16:35:51.926Z,97244.53
2023-02-18T16:38:20.994Z,97249.34
2023-02-18T16:40:49.062Z,97241.69
2023-02-18T16:43:18.676Z,97256.56
2023-02-18T16:45:49.619Z,97259.56
2023-02-18T16:48:22.432Z,97257.75
2023-02-18T16:50:51.146Z,97275.97
2023-02-18T16:53:19.962Z,97270.22
2023-02-18T16:55:47.542Z,97275.19
2023-02-18T16:58:15.105Z,97283.00
2023-02-18T17:00:43.570Z,97286.00
2023-02-18T17:03:11.429Z,97300.47
2023-02-18T17:05:41.183Z,97304.22
2023-02-18T17:08:17.080Z,97305.09
2023-02-18T17:10:44.648Z,97315.66
2023-02-18T17:13:14.944Z,97330.19
2023-02-18T17:15:46.413Z,97321.63
2023-02-18T17:18:15.414Z,97321.78
2023-02-18T17:20:44.478Z,97319.94
2023-02-18T17:23:15.224Z,97336.13
2023-02-18T17:25:43.022Z,97347.19
2023-02-18T17:28:10.549Z,97350.81
2023-02-18T17:30:39.996Z,97351.63
2023-02-18T17:33:07.913Z,97348.84
2023-02-18T17:35:35.541Z,97347.50
2023-02-18T17:38:06.783Z,97348.03
2023-02-18T17:40:34.353Z,97343.69
2023-02-18T17:43:01.873Z,97350.66
2023-02-18T17:45:33.264Z,97360.38
2023-02-18T17:48:01.728Z,97355.13
2023-02-18T17:50:30.480Z,97342.25
2023-02-18T17:52:58.257Z,97328.69
2023-02-18T17:55:28.823Z,97339.75
2023-02-18T17:57:57.103Z,97352.13
2023-02-18T18:00:26.263Z,97354.13
2023-02-18T18:02:54.069Z,97357.91
2023-02-18T18:05:25.207Z,97359.69
2023-02-18T18:07:52.880Z,97369.59
2023-02-18T18:10:23.137Z,97367.63
2023-02-18T18:12:52.225Z,97363.50
2023-02-18T18:15:26.006Z,97363.66
2023-02-18T18:17:53.769Z,97369.91
2023-02-18T18:20:21.948Z,97375.19
2023-02-18T18:22:49.894Z,97369.59
2023-02-18T18:25:23.388Z,97371.91
2023-02-18T18:27:53.734Z,97382.16
2023-02-18T18:30:23.639Z,97390.88
2023-02-18T18:32:51.688Z,97383.13
2023-02-18T18:35:22.041Z,97382.78
2023-02-18T18:37:49.905Z,97380.66
2023-02-18T18:40:18.063Z,97380.78
2023-02-18T18:42:45.556Z,97397.09
2023-02-18T18:45:20.409Z,97397.06
2023-02-18T18:47:48.619Z,97400.81
2023-02-18T18:50:17.284Z,97392.88
2023-02-18T18:52:45.322Z,97409.69
2023-02-18T18:55:20.914Z,97403.53
2023-02-18T18:57:48.569Z,97404.06
2023-02-18T19:00:18.797Z,97404.88
2023-02-18T19:02:46.663Z,97398.78
2023-02-18T19:05:26.812Z,97399.94
2023-02-18T19:07:54.791Z,97392.84
2023-02-18T19:10:22.592Z,97406.84
2023-02-18T19:12:50.550Z,97394.44
2023-02-18T19:15:22.330Z,97400.09
2023-02-18T19:17:52.190Z,97401.38
2023-02-18T19:20:22.046Z,97402.22
2023-02-18T19:22:50.006Z,97414.75
2023-02-18T19:25:17.798Z,97408.00
2023-02-18T19:27:46.571Z,97403.34
2023-02-18T19:30:16.270Z,97422.16
2023-02-18T19:32:45.443Z,97414.94
2023-02-18T19:35:13.537Z,97427.41
2023-02-18T19:37:41.922Z,97411.13
2023-02-18T19:40:12.754Z,97434.72
2023-02-18T19:42:40.328Z,97403.91
2023-02-18T19:45:08.482Z,97413.63
2023-02-18T19:47:36.043Z,97410.31
2023-02-18T19:50:06.939Z,97411.97
2023-02-18T19:52:34.907Z,97418.38
2023-02-18T19:55:02.509Z,97412.78
2023-02-18T19:57:30.007Z,97421.38
2023-02-18T19:59:57.589Z,97414.13
2023-02-18T20:02:27.086Z,97418.25
2023-02-18T20:04:55.610Z,97415.44
2023-02-18T20:07:24.505Z,97412.00
2023-02-18T20:09:53.284Z,97415.63
2023-02-18T20:12:21.179Z,97413.47
2023-02-18T20:14:50.701Z,97408.38
2023-02-18T20:17:18.731Z,97420.41
2023-02-18T20:19:46.347Z,97409.41
2023-02-18T20:22:14.051Z,97416.50
2023-02-18T20:24:43.231Z,97406.09
2023-02-18T20:27:11.265Z,97407.59
2023-02-18T20:29:38.797Z,97399.50
2023-02-18T20:32:07.030Z,97407.75
2023-02-18T20:34:34.600Z,97398.50
2023-02-18T20:37:02.191Z,97400.16
2023-02-18T20:39:29.761Z,97399.84
2023-02-18T20:42:02.929Z,97401.81
2023-02-18T20:44:33.044Z,97400.34
2023-02-18T20:47:00.576Z,97402.16
2023-02-18T20:49:28.957Z,97404.13
2023-02-18T20:51:56.449Z,97403.59
2023-02-18T20:54:24.024Z,97400.47
2023-02-18T20:56:51.908Z,97405.88
2023-02-18T20:59:21.631Z,97405.72
2023-02-18T21:01:49.735Z,97413.94
2023-02-18T21:04:19.120Z,97409.81
2023-02-18T21:06:47.034Z,97410.66
2023-02-18T21:09:15.786Z,97420.50
2023-02-18T21:11:43.825Z,97410.94
2023-02-18T21:14:12.325Z,97412.59
2023-02-18T21:16:41.786Z,97429.88
2023-02-18T21:19:12.318Z,97428.38
2023-02-18T21:21:39.954Z,97425.38
2023-02-18T21:24:07.976Z,97433.28
2023-02-18T21:26:35.789Z,97424.19
2023-02-18T21:29:06.431Z,97425.69
2023-02-18T21:31:35.632Z,97428.47
2023-02-18T21:34:05.327Z,97417.94
2023-02-18T21:36:33.663Z,97406.38
2023-02-18T21:39:02.881Z,97415.47
2023-02-18T21:41:31.150Z,97418.91
2023-02-18T21:43:58.712Z,97415.63
2023-02-18T21:46:27.614Z,97423.50
2023-02-18T21:49:05.688Z,97420.88
2023-02-18T21:51:54.829Z,97424.19
2023-02-18T21:54:24.268Z,97421.25
2023-02-18T21:56:51.886Z,97421.25
2023-02-18T21:59:20.208Z,97424.41
2023-02-18T22:01:48.008Z,97417.13
2023-02-18T22:04:15.955Z,97412.66
2023-02-18T22:06:45.165Z,97417.13
2023-02-18T22:09:13.360Z,97421.75
2023-02-18T22:11:41.206Z,97420.09
2023-02-18T22:14:09.506Z,97414.69
2023-02-18T22:16:37.159Z,97415.19
2023-02-18T22:19:04.826Z,97407.94
2023-02-18T22:21:32.367Z,97410.75
2023-02-18T22:24:01.308Z,97409.44
2023-02-18T22:26:28.920Z,97410.13
2023-02-18T22:28:58.167Z,97405.88
2023-02-18T22:31:27.200Z,97397.94
2023-02-18T22:33:56.326Z,97402.88
2023-02-18T22:36:25.821Z,97392.13
2023-02-18T22:38:54.030Z,97384.75
2023-02-18T22:41:24.451Z,97389.19
2023-02-18T22:43:54.905Z,97392.66
2023-02-18T22:46:22.413Z,97388.50
2023-02-18T22:48:50.056Z,97381.94
2023-02-18T22:51:19.572Z,97381.28
2023-02-18T22:53:47.643Z,97385.56
2023-02-18T22:56:18.182Z,97385.09
2023-02-18T22:58:48.579Z,97375.00
2023-02-18T23:01:20.596Z,97373.84
2023-02-18T23:03:48.280Z,97369.88
2023-02-18T23:06:16.090Z,97365.28
2023-02-18T23:08:43.882Z,97357.31
2023-02-18T23:11:13.908Z,97369.41
2023-02-18T23:13:41.740Z,97364.97
2023-02-18T23:16:13.560Z,97368.09
2023-02-18T23:18:41.490Z,97373.00
2023-02-18T23:21:18.344Z,97370.91
2023-02-18T23:23:46.692Z,97367.75
2023-02-18T23:26:14.594Z,97364.97
2023-02-18T23:28:48.789Z,97353.59
2023-02-18T23:31:20.259Z,97354.09
2023-02-18T23:33:49.837Z,97345.34
2023-02-18T23:36:18.809Z,97347.66
2023-02-18T23:38:48.232Z,97340.59
2023-02-18T23:41:16.032Z,97339.28
2023-02-18T23:43:43.561Z,97333.34
2023-02-18T23:46:11.254Z,97341.38
2023-02-18T23:48:40.990Z,97335.00
2023-02-18T23:51:10.572Z,97339.28
2023-02-18T23:53:38.548Z,97335.00
2023-02-18T23:56:08.489Z,97332.00
2023-02-18T23:58:36.519Z,97325.75
